Time;durP1;ratioP1;P1;durP2;ratioP2;P2;SDS_P1;SDS_P2;PMS_P1;PMS_P2;Temp;Humidity;BMP_temperature;BMP_pressure;BME280_temperature;BME280_humidity;BME280_pressure;Samples;Min_cycle;Max_cycle;Signal;HPM_P1;HPM_P2
2022/04/08 00:52:36;;;;;;;2.15;0.93;;;;;;;7.00;68.80;97815.55;1710318;81;20906;-78
2022/04/08 00:55:06;;;;;;;3.37;0.90;;;;;;;7.03;68.86;97820.99;1712185;83;20953;-78
2022/04/08 00:57:34;;;;;;;3.05;1.07;;;;;;;7.04;68.85;97820.09;1712045;82;20949;-78
2022/04/08 01:00:08;;;;;;;4.12;1.65;;;;;;;7.05;68.83;97822.59;1695418;82;21483;-78
2022/04/08 01:02:35;;;;;;;2.72;0.90;;;;;;;7.06;68.87;97822.97;1691715;83;20985;-78
2022/04/08 01:05:03;;;;;;;5.80;1.10;;;;;;;7.08;68.88;97812.17;1699499;82;20949;-78
2022/04/08 01:07:32;;;;;;;2.65;0.93;;;;;;;7.09;68.91;97820.70;1710352;82;20919;-78
2022/04/08 01:10:01;;;;;;;3.83;1.02;;;;;;;7.10;68.86;97823.20;1695778;83;21069;-78
2022/04/08 01:12:27;;;;;;;1.47;0.70;;;;;;;7.13;68.84;97825.64;1694649;82;21032;-78
2022/04/08 01:14:59;;;;;;;2.67;0.90;;;;;;;7.14;68.85;97811.88;1709572;82;21028;-78
2022/04/08 01:17:26;;;;;;;1.65;0.60;;;;;;;7.16;68.82;97815.22;1692287;82;21004;-78
2022/04/08 01:19:53;;;;;;;9.03;1.02;;;;;;;7.18;68.83;97804.86;1684543;82;20980;-78
2022/04/08 01:22:23;;;;;;;5.75;1.00;;;;;;;7.20;68.76;97805.63;1692851;82;20974;-78
2022/04/08 01:24:56;;;;;;;4.83;0.80;;;;;;;7.23;68.76;97799.05;1687571;82;21092;-77
2022/04/08 01:27:22;;;;;;;4.05;0.95;;;;;;;7.24;68.72;97806.69;1691826;82;20989;-78
2022/04/08 01:29:48;;;;;;;4.58;0.90;;;;;;;7.26;68.73;97794.59;1705801;83;20977;-78
2022/04/08 01:32:17;;;;;;;3.53;1.07;;;;;;;7.28;68.74;97798.35;1711998;83;20917;-79
2022/04/08 01:34:45;;;;;;;4.25;0.90;;;;;;;7.28;68.72;97789.36;1706338;82;21112;-79
2022/04/08 01:37:11;;;;;;;4.90;1.02;;;;;;;7.29;68.69;97784.14;1707730;83;21087;-79
2022/04/08 01:39:38;;;;;;;2.90;1.00;;;;;;;7.31;68.68;97789.21;1678370;83;21061;-79
2022/04/08 01:42:05;;;;;;;1.62;0.88;;;;;;;7.31;68.67;97786.64;1700920;82;21140;-78
2022/04/08 01:44:31;;;;;;;3.67;0.95;;;;;;;7.34;68.66;97781.35;1696061;83;21024;-78
2022/04/08 01:46:57;;;;;;;3.30;0.90;;;;;;;7.35;68.60;97793.75;1706989;82;20958;-78
2022/04/08 01:49:22;;;;;;;5.73;1.27;;;;;;;7.34;68.59;97783.09;1705568;83;21741;-78
2022/04/08 01:51:49;;;;;;;2.37;0.75;;;;;;;7.35;68.59;97788.16;1700795;83;21132;-78
2022/04/08 01:54:15;;;;;;;3.30;0.80;;;;;;;7.38;68.58;97795.72;1680966;82;20989;-78
2022/04/08 01:56:40;;;;;;;5.33;0.90;;;;;;;7.38;68.55;97800.03;1692592;84;20886;-78
2022/04/08 01:59:06;;;;;;;3.30;0.83;;;;;;;7.40;68.60;97802.91;1706176;83;20902;-78
2022/04/08 02:01:32;;;;;;;2.67;0.87;;;;;;;7.40;68.60;97802.91;1694211;82;20902;-78
2022/04/08 02:03:58;;;;;;;2.43;0.63;;;;;;;7.42;68.51;97805.41;1689955;83;20992;-78
2022/04/08 02:06:25;;;;;;;4.67;0.80;;;;;;;7.44;68.49;97807.45;1677720;84;20989;-78
2022/04/08 02:08:53;;;;;;;;;;;;;;;7.46;68.45;97805.63;1682080;82;21017;-78
2022/04/08 02:11:19;;;;;;;3.72;1.10;;;;;;;7.45;68.42;97802.23;1687794;84;20651;-78
2022/04/08 02:13:45;;;;;;;5.28;0.93;;;;;;;7.45;68.41;97810.40;1680816;82;21012;-78
2022/04/08 02:16:10;;;;;;;3.80;0.73;;;;;;;7.44;68.44;97795.42;1683440;82;21680;-78
2022/04/08 02:18:37;;;;;;;2.87;0.78;;;;;;;7.45;68.41;97821.97;1690196;84;21503;-78
2022/04/08 02:21:04;;;;;;;2.90;0.65;;;;;;;7.43;68.39;97816.06;1684717;82;21001;-78
2022/04/08 02:23:31;;;;;;;2.92;1.10;;;;;;;7.42;68.41;97820.38;1705569;83;21271;-78
2022/04/08 02:25:57;;;;;;;;;;;;;;;7.43;68.41;97830.20;1686604;83;21541;-78
2022/04/08 02:28:23;;;;;;;7.35;0.82;;;;;;;7.41;68.36;97823.85;1707474;82;20179;-78
2022/04/08 02:30:54;;;;;;;2.33;0.82;;;;;;;7.39;68.42;97837.68;1685384;82;20922;-78
2022/04/08 02:33:20;;;;;;;3.08;0.60;;;;;;;7.33;68.50;97838.80;1688735;83;21387;-78
2022/04/08 02:35:46;;;;;;;2.23;0.87;;;;;;;7.26;68.48;97825.44;1706450;83;21497;-78
2022/04/08 02:38:12;;;;;;;3.42;0.82;;;;;;;7.21;68.56;97836.84;1692980;82;20929;-78
2022/04/08 02:40:38;;;;;;;2.47;0.63;;;;;;;7.15;68.56;97835.84;1694148;82;21803;-78
2022/04/08 02:43:04;;;;;;;1.77;0.73;;;;;;;7.09;68.70;97829.70;1678330;84;21409;-78
2022/04/08 02:45:31;;;;;;;3.20;0.62;;;;;;;7.03;68.75;97832.55;1701225;82;21442;-78
2022/04/08 02:47:56;;;;;;;1.80;0.57;;;;;;;6.95;68.76;97826.03;1698323;84;20875;-78
2022/04/08 02:50:22;;;;;;;2.07;0.80;;;;;;;6.91;68.76;97827.08;1656213;84;20930;-78
2022/04/08 02:52:48;;;;;;;1.23;0.50;;;;;;;6.88;68.94;97843.08;1675456;82;21080;-78
2022/04/08 02:55:14;;;;;;;1.70;0.72;;;;;;;6.87;68.88;97815.73;1673926;82;21933;-77
2022/04/08 02:57:45;;;;;;;1.93;0.73;;;;;;;6.87;68.94;97850.40;1692298;83;20985;-78
2022/04/08 03:00:10;;;;;;;1.05;0.60;;;;;;;6.87;68.85;97836.27;1699128;82;21628;-78
2022/04/08 03:02:36;;;;;;;2.20;0.98;;;;;;;6.85;69.11;97841.93;1685088;82;21727;-78
2022/04/08 03:05:06;;;;;;;2.35;0.60;;;;;;;6.80;69.55;97856.27;1697377;84;21513;-77
2022/04/08 03:07:31;;;;;;;7.30;1.75;;;;;;;6.77;69.18;97870.97;1705524;83;21134;-77
2022/04/08 03:09:57;;;;;;;1.87;0.80;;;;;;;6.74;69.21;97880.13;1706257;83;21020;-77
2022/04/08 03:12:23;;;;;;;1.83;0.50;;;;;;;6.71;69.53;97868.70;1699151;82;21565;-77
2022/04/08 03:14:49;;;;;;;0.97;0.70;;;;;;;6.67;69.54;97897.54;1678375;84;21766;-77
2022/04/08 03:17:15;;;;;;;1.33;0.60;;;;;;;6.63;69.41;97912.70;1688968;84;20893;-77
2022/04/08 03:19:41;;;;;;;1.23;0.80;;;;;;;6.55;69.61;97914.30;1691074;83;21007;-77
2022/04/08 03:22:07;;;;;;;1.77;0.60;;;;;;;6.49;69.67;97909.88;1684955;82;21978;-78
2022/04/08 03:24:33;;;;;;;2.97;1.07;;;;;;;6.44;69.68;97919.52;1678441;84;21339;-78
2022/04/08 03:26:59;;;;;;;1.82;0.82;;;;;;;6.38;70.07;97916.75;1658006;85;21028;-78
2022/04/08 03:29:25;;;;;;;3.27;0.80;;;;;;;6.34;69.90;97901.55;1680879;82;21726;-78
2022/04/08 03:31:51;;;;;;;2.83;1.00;;;;;;;6.30;69.91;97919.64;1681887;82;21607;-78
2022/04/08 03:34:17;;;;;;;1.47;0.80;;;;;;;6.26;70.11;97929.65;1677900;84;20922;-78
2022/04/08 03:36:45;;;;;;;1.13;0.67;;;;;;;6.25;70.02;97926.70;1677646;84;21122;-78
2022/04/08 03:39:13;;;;;;;2.85;0.70;;;;;;;6.24;69.97;97934.01;1696921;82;21640;-78
2022/04/08 03:41:40;;;;;;;1.87;0.70;;;;;;;6.24;70.11;97951.14;1678875;84;21337;-78
2022/04/08 03:44:06;;;;;;;;;;;;;;;6.25;70.30;97947.22;1687934;82;21367;-77
2022/04/08 03:46:32;;;;;;;0.85;0.50;;;;;;;6.26;70.47;97963.45;1710256;82;20723;-77
2022/04/08 03:48:58;;;;;;;1.70;0.83;;;;;;;6.26;70.15;97964.73;1686106;83;20898;-77
2022/04/08 03:51:24;;;;;;;3.80;0.85;;;;;;;6.29;70.19;97977.44;1695668;83;20926;-77
2022/04/08 03:53:50;;;;;;;2.55;1.20;;;;;;;6.31;70.19;97985.47;1692411;82;21537;-77
2022/04/08 03:56:16;;;;;;;1.87;0.63;;;;;;;6.33;70.17;98003.36;1708153;84;20866;-77
2022/04/08 03:58:42;;;;;;;1.37;0.83;;;;;;;6.34;70.29;97996.05;1701430;82;21375;-78
2022/04/08 04:01:12;;;;;;;1.82;0.82;;;;;;;6.35;70.31;98013.13;1678569;83;21568;-78
2022/04/08 04:03:38;;;;;;;5.72;0.82;;;;;;;6.37;70.24;98020.31;1692526;82;21414;-78
2022/04/08 04:06:04;;;;;;;1.33;0.77;;;;;;;6.38;70.35;98021.14;1706735;83;20887;-78
2022/04/08 04:08:30;;;;;;;0.83;0.70;;;;;;;6.39;70.58;98024.09;1679879;85;20937;-78
2022/04/08 04:10:56;;;;;;;1.27;0.70;;;;;;;6.38;70.42;98036.55;1682200;82;20902;-78
2022/04/08 04:13:22;;;;;;;1.17;0.70;;;;;;;6.36;70.51;98049.89;1686520;83;20938;-78
2022/04/08 04:15:48;;;;;;;8.13;1.00;;;;;;;6.35;70.56;98054.62;1682653;82;20981;-77
2022/04/08 04:18:15;;;;;;;2.90;0.78;;;;;;;6.33;70.71;98061.56;1676766;82;21062;-77
2022/04/08 04:20:41;;;;;;;1.32;0.82;;;;;;;6.31;70.68;98075.73;1680646;82;21470;-78
2022/04/08 04:23:07;;;;;;;1.60;0.80;;;;;;;6.29;70.94;98089.91;1680725;82;20930;-78
2022/04/08 04:25:34;;;;;;;4.40;1.17;;;;;;;6.27;70.78;98085.28;1699581;84;20889;-78
2022/04/08 04:27:59;;;;;;;1.00;0.85;;;;;;;6.26;70.98;98078.48;1673259;82;21064;-78
2022/04/08 04:30:27;;;;;;;1.50;0.70;;;;;;;6.21;71.01;98101.39;1687525;84;20910;-78
2022/04/08 04:32:55;;;;;;;4.08;1.37;;;;;;;6.18;70.91;98117.74;1677737;85;21061;-78
2022/04/08 04:35:22;;;;;;;2.62;1.00;;;;;;;6.17;70.97;98124.21;1698713;82;21072;-78
2022/04/08 04:37:48;;;;;;;2.17;1.37;;;;;;;6.17;70.95;98138.33;1705616;82;21049;-78
2022/04/08 04:40:14;;;;;;;2.40;1.23;;;;;;;6.15;71.00;98120.42;1678790;84;21104;-78
2022/04/08 04:42:48;;;;;;;2.90;1.10;;;;;;;6.15;71.26;98138.38;1677679;85;21560;-78
2022/04/08 04:45:14;;;;;;;1.53;1.13;;;;;;;6.16;71.30;98144.35;1708652;82;20882;-78
2022/04/08 04:47:40;;;;;;;3.02;1.40;;;;;;;6.13;71.29;98145.30;1692442;82;21069;-78
2022/04/08 04:50:07;;;;;;;1.73;1.20;;;;;;;6.13;71.26;98145.75;1672013;84;21065;-78
2022/04/08 04:52:32;;;;;;;;;;;;;;;6.12;71.32;98162.03;1690009;82;21069;-77
2022/04/08 04:54:59;;;;;;;1.47;1.20;;;;;;;6.12;71.76;98169.73;1674491;82;20649;-77
2022/04/08 04:57:26;;;;;;;2.77;1.50;;;;;;;6.12;71.48;98170.56;1650898;84;21100;-78
2022/04/08 04:59:52;;;;;;;7.45;1.67;;;;;;;6.16;71.62;98175.97;1673448;84;21003;-78
2022/04/08 05:02:21;;;;;;;1.57;0.70;;;;;;;6.20;71.44;98180.09;1687606;84;21642;-78
2022/04/08 05:04:47;;;;;;;1.33;0.70;;;;;;;6.23;71.60;98192.81;1659313;84;20950;-78
2022/04/08 05:07:14;;;;;;;1.70;0.60;;;;;;;6.24;71.58;98204.72;1666878;84;20982;-78
2022/04/08 05:09:41;;;;;;;0.55;0.40;;;;;;;6.27;71.59;98196.91;1672049;84;27190;-78
2022/04/08 05:12:10;;;;;;;0.88;0.45;;;;;;;6.24;71.55;98215.44;1672696;83;21117;-78
2022/04/08 05:14:36;;;;;;;0.70;0.42;;;;;;;6.22;71.75;98209.55;1682234;84;21066;-78
2022/04/08 05:17:03;;;;;;;1.95;0.20;;;;;;;6.17;71.62;98223.83;1678454;84;21124;-78
2022/04/08 05:19:29;;;;;;;0.50;0.37;;;;;;;6.11;71.71;98217.64;1685572;84;21133;-78
2022/04/08 05:21:55;;;;;;;1.20;0.20;;;;;;;6.04;71.99;98221.77;1698929;84;21675;-78
2022/04/08 05:24:21;;;;;;;1.13;0.10;;;;;;;5.95;71.84;98239.16;1690963;83;20938;-78
2022/04/08 05:26:47;;;;;;;1.05;0.28;;;;;;;5.88;71.91;98242.79;1671963;83;21074;-78
2022/04/08 05:29:15;;;;;;;0.53;0.13;;;;;;;5.83;71.88;98252.81;1659922;84;586122;-78
2022/04/08 05:31:41;;;;;;;0.50;0.20;;;;;;;5.80;72.03;98261.45;1684486;84;21588;-78
2022/04/08 05:34:07;;;;;;;0.20;0.10;;;;;;;5.81;72.05;98263.57;1660864;84;21108;-78
2022/04/08 05:36:33;;;;;;;0.62;0.33;;;;;;;5.95;72.23;98264.80;1685210;83;21316;-78
2022/04/08 05:38:59;;;;;;;0.40;0.30;;;;;;;6.28;72.41;98273.00;1686158;83;21060;-78
2022/04/08 05:41:25;;;;;;;0.30;0.30;;;;;;;6.54;72.47;98269.94;1686059;83;21037;-78
2022/04/08 05:43:54;;;;;;;1.05;0.40;;;;;;;6.61;72.13;98286.34;1682973;83;21033;-77
2022/04/08 05:46:20;;;;;;;1.70;0.40;;;;;;;6.59;72.10;98291.98;1654008;85;21073;-78
2022/04/08 05:48:46;;;;;;;0.67;0.40;;;;;;;6.53;72.05;98303.76;1684268;83;20968;-79
2022/04/08 05:51:12;;;;;;;1.40;0.30;;;;;;;6.48;72.03;98316.37;1680133;83;21061;-79
2022/04/08 05:53:38;;;;;;;2.62;0.35;;;;;;;6.44;72.26;98331.05;1689204;84;21098;-79
2022/04/08 05:56:05;;;;;;;0.40;0.20;;;;;;;6.30;72.57;98321.27;1670869;83;21026;-79
2022/04/08 05:58:32;;;;;;;0.47;0.30;;;;;;;6.14;72.40;98343.69;1677775;82;20922;-78
2022/04/08 06:00:59;;;;;;;0.30;0.25;;;;;;;5.95;72.18;98341.75;1680290;82;21047;-80
2022/04/08 06:03:27;;;;;;;0.17;0.17;;;;;;;5.83;72.24;98352.39;1692019;83;21494;-80
2022/04/08 06:05:54;;;;;;;2.43;0.20;;;;;;;5.74;72.38;98346.72;1689862;83;20918;-80
2022/04/08 06:08:20;;;;;;;1.80;0.47;;;;;;;5.63;72.39;98364.60;1694952;82;21699;-77
2022/04/08 06:10:49;;;;;;;0.40;0.30;;;;;;;5.58;72.38;98360.50;1694246;83;21109;-77
2022/04/08 06:13:16;;;;;;;;;;;;;;;5.53;72.48;98374.75;1522670;82;10000836;-77
2022/04/08 06:15:43;;;;;;;0.33;0.33;;;;;;;5.51;72.72;98384.66;1681700;82;20160;-77
2022/04/08 06:18:15;;;;;;;1.40;0.40;;;;;;;5.46;72.54;98386.08;1693083;83;21077;-77
2022/04/08 06:20:41;;;;;;;0.90;0.50;;;;;;;5.43;72.61;98393.02;1685797;82;21065;-78
2022/04/08 06:23:08;;;;;;;0.68;0.57;;;;;;;5.38;72.64;98391.05;1691030;83;21136;-78
2022/04/08 06:25:34;;;;;;;3.00;0.57;;;;;;;5.31;72.66;98391.67;1692906;82;21643;-77
2022/04/08 06:28:03;;;;;;;0.80;0.47;;;;;;;5.29;72.74;98396.84;1687791;82;21109;-78
2022/04/08 06:30:36;;;;;;;0.85;0.40;;;;;;;5.29;72.72;98398.13;1691959;83;21346;-78
2022/04/08 06:33:04;;;;;;;0.70;0.57;;;;;;;5.32;72.93;98405.72;1691325;82;21188;-78
2022/04/08 06:35:30;;;;;;;1.10;0.60;;;;;;;5.39;72.87;98408.09;1693367;83;21009;-78
2022/04/08 06:38:02;;;;;;;0.88;0.40;;;;;;;5.45;72.90;98418.16;1689810;82;21132;-78
2022/04/08 06:40:29;;;;;;;1.20;0.70;;;;;;;5.51;72.92;98417.98;1689115;82;21057;-77
2022/04/08 06:42:55;;;;;;;1.65;0.50;;;;;;;5.57;72.93;98416.51;1693198;82;21470;-77
2022/04/08 06:45:23;;;;;;;2.58;0.88;;;;;;;5.68;72.96;98426.43;1692506;82;21065;-77
2022/04/08 06:47:50;;;;;;;1.55;0.70;;;;;;;5.83;73.04;98437.02;1691942;82;21146;-77
2022/04/08 06:50:17;;;;;;;;;;;;;;;6.15;73.33;98446.72;1692352;82;21101;-77
2022/04/08 06:52:43;;;;;;;0.82;0.70;;;;;;;6.42;73.58;98453.47;1692663;82;20540;-77
2022/04/08 06:55:10;;;;;;;1.27;0.72;;;;;;;6.55;73.05;98449.59;1696845;82;21061;-77
2022/04/08 06:57:37;;;;;;;0.60;0.50;;;;;;;6.68;73.09;98459.45;1687412;82;21070;-78
2022/04/08 07:00:07;;;;;;;2.33;0.65;;;;;;;6.81;73.20;98455.53;1694453;83;21340;-78
2022/04/08 07:02:34;;;;;;;1.55;0.47;;;;;;;6.88;73.08;98458.28;1690408;82;21519;-78
2022/04/08 07:05:00;;;;;;;2.20;0.37;;;;;;;6.91;72.90;98464.59;1691284;82;20926;-78
2022/04/08 07:07:35;;;;;;;0.90;0.40;;;;;;;6.87;72.91;98484.86;1682646;82;20945;-77
2022/04/08 07:10:04;;;;;;;0.90;0.50;;;;;;;6.84;72.93;98493.95;1693535;82;20930;-77
2022/04/08 07:12:30;;;;;;;1.30;0.35;;;;;;;6.78;73.04;98488.58;1692290;82;20970;-77
2022/04/08 07:14:56;;;;;;;0.40;0.40;;;;;;;6.56;72.66;98502.62;1687399;82;20906;-78
2022/04/08 07:17:30;;;;;;;1.55;0.65;;;;;;;6.31;72.69;98510.30;1690286;83;20923;-78
2022/04/08 07:19:57;;;;;;;1.60;0.50;;;;;;;6.14;72.81;98529.72;1695925;82;20883;-78
2022/04/08 07:22:25;;;;;;;2.02;0.50;;;;;;;5.94;72.88;98522.63;1696302;82;20930;-78
2022/04/08 07:24:53;;;;;;;0.80;0.37;;;;;;;5.76;72.98;98538.54;1697333;82;20895;-78
2022/04/08 07:27:20;;;;;;;2.65;0.55;;;;;;;5.58;72.98;98529.25;1691893;82;20910;-78
2022/04/08 07:29:47;;;;;;;2.80;0.30;;;;;;;5.50;73.14;98550.42;1689538;82;20962;-78
2022/04/08 07:32:20;;;;;;;3.40;0.80;;;;;;;5.46;73.14;98555.68;1690033;83;20953;-78
2022/04/08 07:34:43;;;;;;;2.20;0.82;;;;;;;5.44;73.08;98555.72;1685998;82;20982;-79
2022/04/08 07:37:09;;;;;;;0.88;0.30;;;;;;;5.43;73.16;98554.05;1696309;83;20898;-79
2022/04/08 07:39:41;;;;;;;1.57;0.35;;;;;;;5.49;73.19;98567.13;1693965;83;21388;-79
2022/04/08 07:42:04;;;;;;;3.25;0.78;;;;;;;5.51;73.18;98564.92;1690923;82;20961;-79
2022/04/08 07:44:29;;;;;;;1.37;0.40;;;;;;;5.51;73.21;98564.08;1690676;82;20926;-79
2022/04/08 07:46:57;;;;;;;3.35;0.65;;;;;;;5.59;73.37;98577.08;1675290;82;48288;-80
2022/04/08 07:49:23;;;;;;;2.07;0.70;;;;;;;5.72;73.33;98581.38;1689205;82;21400;-79
2022/04/08 07:51:49;;;;;;;2.22;0.60;;;;;;;5.82;73.38;98585.36;1693315;81;20922;-79
2022/04/08 07:54:15;;;;;;;1.45;0.82;;;;;;;5.93;73.33;98586.36;1704110;81;20918;-79
2022/04/08 07:56:41;;;;;;;0.93;0.30;;;;;;;6.02;73.34;98598.08;1690467;82;20958;-79
2022/04/08 07:59:21;;;;;;;2.33;0.57;;;;;;;6.08;73.33;98599.17;1696965;82;21648;-79
2022/04/08 08:01:48;;;;;;;1.17;0.77;;;;;;;6.19;73.35;98608.23;1687651;82;21338;-79
2022/04/08 08:04:15;;;;;;;2.37;0.60;;;;;;;6.28;73.37;98617.34;1698417;82;21636;-79
2022/04/08 08:06:42;;;;;;;3.08;0.55;;;;;;;6.37;73.34;98627.78;1699387;82;20942;-77
2022/04/08 08:09:08;;;;;;;3.08;0.55;;;;;;;6.48;73.50;98627.00;1697024;82;20933;-78
2022/04/08 08:11:34;;;;;;;1.45;1.05;;;;;;;6.57;73.44;98636.98;1698477;82;20950;-81
2022/04/08 08:14:00;;;;;;;0.77;0.60;;;;;;;6.72;73.50;98633.09;1693870;82;21462;-81
2022/04/08 08:16:26;;;;;;;1.13;0.90;;;;;;;6.87;73.46;98632.57;1695976;82;215296;-81
2022/04/08 08:18:56;;;;;;;2.33;0.63;;;;;;;6.97;73.44;98640.38;1697229;82;21169;-81
2022/04/08 08:21:20;;;;;;;5.08;0.75;;;;;;;7.05;73.46;98639.67;1692746;82;21580;-82
2022/04/08 08:23:46;;;;;;;2.95;0.40;;;;;;;7.11;73.48;98651.03;1694900;82;21009;-82
2022/04/08 08:26:13;;;;;;;0.70;0.40;;;;;;;7.14;73.36;98666.36;1693516;82;21017;-83
2022/04/08 08:28:42;;;;;;;;;;;;;;;7.13;73.30;98670.26;1695854;81;20963;-83
2022/04/08 08:31:08;;;;;;;1.45;0.60;;;;;;;7.10;73.41;98672.48;1696105;82;20587;-78
2022/04/08 08:33:34;;;;;;;2.17;0.37;;;;;;;7.08;73.33;98669.13;1693040;82;21431;-78
2022/04/08 08:36:00;;;;;;;1.27;0.47;;;;;;;7.10;73.23;98673.77;1689478;82;20952;-77
2022/04/08 08:38:27;;;;;;;2.80;0.70;;;;;;;7.14;73.23;98671.50;1688912;82;20945;-82
2022/04/08 08:40:53;;;;;;;1.07;0.47;;;;;;;7.14;73.08;98677.08;1684021;84;21016;-81
2022/04/08 08:43:20;;;;;;;0.28;0.25;;;;;;;7.16;73.09;98676.14;1671475;83;21069;-79
2022/04/08 08:45:49;;;;;;;2.72;0.53;;;;;;;7.20;73.07;98682.86;1690161;82;21049;-79
2022/04/08 08:48:16;;;;;;;1.00;0.37;;;;;;;7.24;72.94;98696.45;1690139;82;20931;-81
2022/04/08 08:50:55;;;;;;;0.78;0.25;;;;;;;7.24;72.80;98696.00;1695643;82;21030;-79
2022/04/08 08:53:20;;;;;;;0.93;0.25;;;;;;;7.22;72.84;98709.80;1691290;82;21025;-78
2022/04/08 08:55:48;;;;;;;1.55;0.30;;;;;;;7.20;72.80;98705.15;1694260;81;21057;-80
2022/04/08 08:58:17;;;;;;;0.90;0.78;;;;;;;7.17;72.66;98706.53;1701239;82;21053;-79
2022/04/08 09:00:43;;;;;;;2.45;0.60;;;;;;;7.12;72.71;98715.68;1682889;82;21112;-79
2022/04/08 09:03:09;;;;;;;3.02;1.15;;;;;;;7.14;72.69;98715.19;1690823;82;21073;-79
2022/04/08 09:05:44;;;;;;;1.98;0.70;;;;;;;7.11;72.66;98726.84;1692598;82;21097;-79
2022/04/08 09:08:15;;;;;;;4.22;1.30;;;;;;;7.13;72.71;98728.92;1686995;82;21049;-80
2022/04/08 09:10:50;;;;;;;2.77;1.30;;;;;;;7.13;72.59;98741.78;1690687;82;21017;-79
2022/04/08 09:13:22;;;;;;;3.10;1.62;;;;;;;7.15;72.60;98746.42;1692294;82;21137;-81
2022/04/08 09:16:01;;;;;;;1.45;0.70;;;;;;;7.17;72.59;98742.52;1688338;82;21088;-79
2022/04/08 09:18:36;;;;;;;4.22;1.57;;;;;;;7.21;72.54;98753.09;1701844;81;21057;-82
2022/04/08 09:21:01;;;;;;;2.72;0.90;;;;;;;7.22;72.46;98764.62;1697239;82;21045;-81
2022/04/08 09:23:33;;;;;;;3.45;0.70;;;;;;;7.18;72.34;98769.45;1690583;82;21053;-80
2022/04/08 09:26:01;;;;;;;2.17;0.78;;;;;;;7.13;72.42;98765.35;1689657;82;21061;-81
2022/04/08 09:28:35;;;;;;;1.42;0.50;;;;;;;7.21;72.54;98773.22;1662427;84;21046;-81
2022/04/08 09:31:02;;;;;;;2.10;0.65;;;;;;;7.27;72.39;98769.17;1651093;84;21037;-81
2022/04/08 09:33:30;;;;;;;0.70;0.25;;;;;;;7.27;72.40;98755.03;1634815;85;21602;-77
2022/04/08 09:35:58;;;;;;;2.83;0.30;;;;;;;7.34;72.49;98756.92;1658780;84;20919;-82
2022/04/08 09:38:32;;;;;;;1.20;0.45;;;;;;;7.42;72.44;98760.09;1659941;84;20951;-81
2022/04/08 09:41:07;;;;;;;2.42;0.55;;;;;;;7.53;72.54;98757.16;1651214;84;20893;-80
2022/04/08 09:43:36;;;;;;;2.00;0.80;;;;;;;7.69;72.55;98757.05;1636440;85;21006;-82
2022/04/08 09:46:18;;;;;;;0.80;0.50;;;;;;;7.87;72.55;98760.24;1634752;85;21266;-77
2022/04/08 09:48:47;;;;;;;2.35;0.90;;;;;;;7.95;72.28;98754.38;1619114;85;21419;-82
2022/04/08 09:51:23;;;;;;;2.22;1.40;;;;;;;8.02;72.15;98761.89;1645286;85;20934;-83
2022/04/08 09:53:58;;;;;;;1.30;0.50;;;;;;;8.03;72.12;98763.56;1688738;82;20938;-83
2022/04/08 09:56:27;;;;;;;1.17;0.57;;;;;;;7.99;72.01;98748.68;1695596;82;20934;-82
2022/04/08 09:58:59;;;;;;;0.80;0.60;;;;;;;8.00;72.13;98755.51;1692662;84;20966;-83
2022/04/08 10:01:28;;;;;;;2.83;0.85;;;;;;;8.03;72.08;98744.27;1690345;82;20911;-80
2022/04/08 10:03:54;;;;;;;6.12;0.88;;;;;;;8.04;72.09;98745.50;1691828;82;21856;-79
2022/04/08 10:06:21;;;;;;;5.95;0.85;;;;;;;8.04;71.86;98751.94;1679014;82;21029;-77
2022/04/08 10:08:48;;;;;;;;;;;;;;;8.01;71.56;98757.64;1697110;82;21006;-78
2022/04/08 10:11:29;;;;;;;2.12;0.80;;;;;;;7.94;71.59;98765.57;1660014;85;20169;-78
2022/04/08 10:14:09;;;;;;;2.08;1.05;;;;;;;7.92;71.75;98769.09;1663994;84;21050;-78
2022/04/08 10:16:39;;;;;;;4.95;1.50;;;;;;;7.75;71.52;98765.84;1684956;82;21144;-78
2022/04/08 10:19:11;;;;;;;4.90;0.93;;;;;;;7.68;71.69;98759.22;1684950;83;21037;-78
2022/04/08 10:21:39;;;;;;;2.90;1.20;;;;;;;7.69;71.78;98762.19;1692162;83;21030;-79
2022/04/08 10:24:13;;;;;;;3.05;0.90;;;;;;;7.74;71.75;98771.88;1696578;82;21078;-78
2022/04/08 10:27:09;;;;;;;4.45;1.00;;;;;;;7.77;71.70;98760.64;1687165;83;21199;-78
2022/04/08 10:29:37;;;;;;;4.00;1.20;;;;;;;7.76;71.45;98762.38;1687855;83;21581;-78
2022/04/08 10:32:14;;;;;;;2.50;1.12;;;;;;;7.73;71.43;98759.91;1669430;84;21017;-78
2022/04/08 10:34:42;;;;;;;2.27;0.90;;;;;;;7.78;71.39;98761.03;1683878;82;20973;-79
2022/04/08 10:37:20;;;;;;;3.08;1.10;;;;;;;7.84;71.43;98771.09;1699377;83;21120;-79
2022/04/08 10:40:05;;;;;;;3.37;1.67;;;;;;;7.90;71.36;98773.00;1678243;83;21029;-82
2022/04/08 10:42:29;;;;;;;3.60;1.35;;;;;;;7.88;71.13;98772.22;1680625;82;21135;-82
2022/04/08 10:44:56;;;;;;;2.17;0.90;;;;;;;7.81;71.07;98771.19;1689022;83;21863;-81
2022/04/08 10:47:23;;;;;;;2.52;1.02;;;;;;;7.86;71.22;98777.02;1694565;83;21053;-80
2022/04/08 10:49:59;;;;;;;3.60;0.90;;;;;;;8.00;71.44;98763.23;1690761;82;21600;-80
2022/04/08 10:52:28;;;;;;;1.70;0.93;;;;;;;8.18;71.32;98762.58;1696485;82;21994;-79
2022/04/08 10:55:07;;;;;;;4.33;0.85;;;;;;;8.31;70.91;98750.11;1683839;84;20899;-81
2022/04/08 10:57:39;;;;;;;5.03;0.98;;;;;;;8.34;70.97;98768.02;1688506;82;20963;-81
2022/04/08 11:00:16;;;;;;;2.62;0.98;;;;;;;8.47;71.07;98762.81;1693907;83;20918;-80
2022/04/08 11:02:43;;;;;;;2.25;0.98;;;;;;;8.61;70.92;98762.30;1692919;82;20887;-80
2022/04/08 11:05:16;;;;;;;3.30;0.85;;;;;;;8.72;70.64;98755.45;1683959;84;21045;-80
2022/04/08 11:07:53;;;;;;;3.95;1.47;;;;;;;8.85;70.83;98764.37;1686226;84;21398;-81
2022/04/08 11:10:21;;;;;;;5.40;1.17;;;;;;;9.01;70.71;98776.21;1686369;82;21525;-80
2022/04/08 11:12:53;;;;;;;1.98;0.98;;;;;;;9.07;70.63;98773.40;1664998;85;20950;-81
2022/04/08 11:15:23;;;;;;;2.05;0.78;;;;;;;9.20;70.63;98775.44;1689483;82;21537;-80
2022/04/08 11:17:51;;;;;;;2.60;0.80;;;;;;;9.31;70.40;98767.72;1686476;82;21052;-80
2022/04/08 11:20:20;;;;;;;2.62;0.90;;;;;;;9.37;70.37;98777.31;1661237;83;21672;-79
2022/04/08 11:22:53;;;;;;;2.60;1.07;;;;;;;9.44;70.05;98790.80;1703181;82;21580;-79
2022/04/08 11:25:26;;;;;;;2.60;0.98;;;;;;;9.42;70.12;98791.31;1681724;83;21069;-79
2022/04/08 11:28:05;;;;;;;2.92;1.12;;;;;;;9.43;70.04;98794.28;1675614;82;21527;-79
2022/04/08 11:30:34;;;;;;;2.83;0.93;;;;;;;9.37;69.75;98787.63;1671513;84;21588;-79
2022/04/08 11:33:01;;;;;;;3.20;0.90;;;;;;;9.30;69.83;98801.70;1667071;82;21037;-79
2022/04/08 11:35:31;;;;;;;3.15;1.30;;;;;;;9.23;69.87;98792.52;1676242;84;22160;-81
2022/04/08 11:37:58;;;;;;;3.87;1.60;;;;;;;9.27;69.93;98788.47;1682684;82;21502;-80
2022/04/08 11:40:24;;;;;;;3.25;1.50;;;;;;;9.42;69.89;98789.56;1682336;83;22317;-80
2022/04/08 11:42:54;;;;;;;3.50;1.02;;;;;;;9.60;69.48;98781.08;1668213;83;21546;-81
2022/04/08 11:45:20;;;;;;;2.72;0.90;;;;;;;9.71;69.43;98798.70;1678122;82;21489;-81
2022/04/08 11:47:49;;;;;;;2.97;1.10;;;;;;;9.75;69.09;98808.00;1682341;82;22133;-80
2022/04/08 11:50:27;;;;;;;4.28;1.20;;;;;;;9.66;68.89;98819.99;1669045;84;21736;-80
2022/04/08 11:52:57;;;;;;;3.17;1.07;;;;;;;9.53;68.71;98817.06;1685071;82;20962;-80
2022/04/08 11:55:28;;;;;;;3.92;1.12;;;;;;;9.40;67.73;98796.98;1687606;82;20917;-81
2022/04/08 11:57:55;;;;;;;6.97;1.25;;;;;;;9.28;68.33;98808.20;1681823;83;21466;-81
2022/04/08 12:00:27;;;;;;;4.33;0.82;;;;;;;9.18;68.42;98806.89;1695804;82;21108;-80
2022/04/08 12:03:00;;;;;;;4.50;1.02;;;;;;;9.19;68.42;98807.73;1573828;82;10000068;-79
2022/04/08 12:05:29;;;;;;;3.55;1.17;;;;;;;9.23;68.18;98810.58;1693624;83;21132;-79
2022/04/08 12:08:01;;;;;;;4.37;0.98;;;;;;;9.23;68.07;98822.18;1688310;83;21624;-79
2022/04/08 12:10:28;;;;;;;3.40;0.82;;;;;;;9.22;68.12;98813.61;1692715;82;21548;-79
2022/04/08 12:12:54;;;;;;;2.25;1.00;;;;;;;9.26;68.07;98813.88;1688304;82;21530;-79
2022/04/08 12:15:24;;;;;;;6.72;1.47;;;;;;;9.30;68.03;98812.02;1695159;82;22289;-78
2022/04/08 12:17:51;;;;;;;5.85;2.58;;;;;;;9.41;68.12;98802.08;1690504;82;21054;-78
2022/04/08 12:20:20;;;;;;;6.37;1.82;;;;;;;9.56;67.93;98803.20;1692002;82;28191;-78
2022/04/08 12:22:48;;;;;;;4.37;1.15;;;;;;;9.66;67.80;98792.89;1693219;82;21433;-78
2022/04/08 12:25:18;;;;;;;4.45;1.20;;;;;;;9.71;67.57;98788.38;1688893;82;21136;-79
2022/04/08 12:27:53;;;;;;;2.83;1.20;;;;;;;9.73;67.47;98799.48;1692969;82;21098;-79
2022/04/08 12:30:29;;;;;;;6.78;1.07;;;;;;;9.75;67.47;98800.25;1694874;82;22231;-79
2022/04/08 12:32:59;;;;;;;5.53;1.57;;;;;;;9.76;67.08;98790.77;1696781;82;21156;-79
2022/04/08 12:35:27;;;;;;;8.20;1.73;;;;;;;9.74;67.13;98797.28;1673693;82;21072;-79
2022/04/08 12:37:53;;;;;;;7.83;2.25;;;;;;;9.77;67.17;98793.29;1689663;82;21053;-79
2022/04/08 12:40:19;;;;;;;5.90;1.77;;;;;;;9.82;67.07;98786.64;1694912;82;22276;-79